Time;durP1;ratioP1;P1;durP2;ratioP2;P2;SDS_P1;SDS_P2;PMS_P1;PMS_P2;Temp;Humidity;BMP_temperature;BMP_pressure;BME280_temperature;BME280_humidity;BME280_pressure;Samples;Min_cycle;Max_cycle;Signal;HPM_P1;HPM_P2
2022/08/06 00:00:01;;;;;;;4.53;1.83;;;13.50;83.80;;;;;;5015266;28;20169;-86
2022/08/06 00:02:28;;;;;;;6.37;1.57;;;13.50;83.80;;;;;;5014259;28;20181;-86
2022/08/06 00:04:59;;;;;;;6.97;1.37;;;13.50;83.90;;;;;;5015314;28;20260;-86
2022/08/06 00:07:25;;;;;;;4.90;1.23;;;13.50;84.30;;;;;;5015474;28;20671;-86
2022/08/06 00:09:50;;;;;;;5.13;1.40;;;13.50;84.20;;;;;;5014011;28;20207;-86
2022/08/06 00:12:16;;;;;;;7.30;1.77;;;13.60;84.20;;;;;;5013134;28;20166;-86
2022/08/06 00:14:41;;;;;;;5.13;1.33;;;13.50;84.20;;;;;;5013909;28;20170;-86
2022/08/06 00:17:07;;;;;;;6.80;1.80;;;13.50;84.10;;;;;;5015140;28;20190;-86
2022/08/06 00:19:33;;;;;;;4.97;1.50;;;13.60;84.20;;;;;;5013730;28;20639;-86
2022/08/06 00:21:58;;;;;;;7.53;1.83;;;13.60;84.50;;;;;;5015044;28;20177;-86
2022/08/06 00:24:24;;;;;;;3.07;1.23;;;13.50;84.70;;;;;;5013866;28;20196;-86
2022/08/06 00:26:50;;;;;;;5.70;1.63;;;13.50;84.80;;;;;;5013714;28;20239;-86
2022/08/06 00:29:15;;;;;;;6.00;1.90;;;13.60;84.60;;;;;;5013694;28;20205;-86
2022/08/06 00:31:41;;;;;;;6.97;1.50;;;13.60;84.50;;;;;;5013533;28;20185;-86
2022/08/06 00:34:08;;;;;;;6.73;2.07;;;13.60;84.30;;;;;;5013556;28;20169;-86
2022/08/06 00:36:33;;;;;;;3.70;1.50;;;13.50;84.20;;;;;;5014898;28;20240;-86
2022/08/06 00:39:02;;;;;;;2.87;1.57;;;13.40;84.50;;;;;;5013505;28;20181;-86
2022/08/06 00:41:29;;;;;;;3.83;1.40;;;13.30;84.70;;;;;;5013572;28;20181;-87
2022/08/06 00:43:56;;;;;;;3.53;1.57;;;13.20;85.20;;;;;;5013463;28;20177;-86
2022/08/06 00:46:22;;;;;;;7.10;1.63;;;13.30;85.20;;;;;;5013107;28;20219;-86
2022/08/06 00:48:48;;;;;;;4.83;1.50;;;13.20;84.90;;;;;;5013297;28;20213;-86
2022/08/06 00:51:13;;;;;;;3.23;1.40;;;13.30;85.00;;;;;;5014471;28;20169;-86
2022/08/06 00:53:39;;;;;;;5.30;1.17;;;13.30;84.90;;;;;;5014533;28;20244;-86
2022/08/06 00:56:05;;;;;;;2.70;1.30;;;13.30;84.70;;;;;;5013017;28;20193;-86
2022/08/06 00:58:30;;;;;;;3.73;1.67;;;13.30;84.30;;;;;;5013238;28;20178;-86
2022/08/06 01:00:56;;;;;;;3.53;1.13;;;13.20;84.20;;;;;;5012993;28;20174;-86
2022/08/06 01:03:22;;;;;;;11.63;2.03;;;13.30;83.90;;;;;;5014302;28;20300;-86
2022/08/06 01:05:48;;;;;;;4.90;1.37;;;13.30;83.70;;;;;;5013008;28;20235;-86
2022/08/06 01:08:13;;;;;;;2.83;1.20;;;13.20;83.50;;;;;;5012635;28;20227;-86
2022/08/06 01:10:39;;;;;;;6.07;1.30;;;13.20;83.60;;;;;;5014139;28;20181;-86
2022/08/06 01:13:06;;;;;;;6.83;1.50;;;13.10;83.70;;;;;;5012741;28;20598;-86
2022/08/06 01:15:33;;;;;;;3.77;1.20;;;13.00;84.30;;;;;;5012867;28;20611;-86
2022/08/06 01:18:18;;;;;;;4.20;1.50;;;13.00;84.30;;;;;;5012658;28;20177;-86
2022/08/06 01:21:09;;;;;;;4.63;1.20;;;12.90;84.40;;;;;;5012874;28;20173;-86
2022/08/06 01:23:48;;;;;;;4.93;1.30;;;12.90;84.90;;;;;;5013776;28;20193;-86
2022/08/06 01:26:13;;;;;;;3.53;1.10;;;12.90;84.80;;;;;;5012657;28;20196;-86
2022/08/06 01:28:45;;;;;;;2.67;1.30;;;12.90;84.40;;;;;;5014186;28;20722;-86
2022/08/06 01:31:21;;;;;;;6.03;1.50;;;13.00;84.30;;;;;;5012767;28;20268;-86
2022/08/06 01:33:58;;;;;;;4.37;1.50;;;13.00;83.90;;;;;;5013884;28;20200;-86
2022/08/06 01:36:42;;;;;;;6.90;1.10;;;12.90;83.90;;;;;;5013858;28;20271;-86
2022/08/06 01:39:11;;;;;;;2.73;1.27;;;12.90;83.70;;;;;;5013953;28;20162;-86
2022/08/06 01:41:45;;;;;;;5.17;1.23;;;12.90;83.80;;;;;;5013692;28;20170;-86
2022/08/06 01:44:17;;;;;;;2.20;1.33;;;12.80;84.00;;;;;;5012488;28;20173;-85
2022/08/06 01:46:49;;;;;;;2.93;1.40;;;12.80;84.20;;;;;;5013457;28;20263;-86
2022/08/06 01:49:19;;;;;;;5.67;1.27;;;12.80;84.20;;;;;;5012265;28;20288;-86
2022/08/06 01:51:48;;;;;;;3.17;1.27;;;12.70;84.30;;;;;;5012271;28;20569;-86
2022/08/06 01:54:14;;;;;;;3.13;1.40;;;12.70;84.30;;;;;;5012211;28;20169;-86
2022/08/06 01:56:43;;;;;;;7.73;1.90;;;12.60;84.70;;;;;;5013308;28;20190;-86
2022/08/06 01:59:12;;;;;;;3.50;1.70;;;12.30;85.90;;;;;;5012382;28;20177;-85
2022/08/06 02:01:39;;;;;;;7.23;1.73;;;12.20;86.80;;;;;;5012290;28;20204;-86
2022/08/06 02:04:06;;;;;;;6.17;1.97;;;12.20;87.50;;;;;;5012286;28;20592;-86
2022/08/06 02:06:41;;;;;;;6.20;2.10;;;12.10;87.70;;;;;;5013423;28;20641;-85
2022/08/06 02:09:15;;;;;;;5.73;2.03;;;12.10;87.80;;;;;;5012798;28;20224;-86
2022/08/06 02:11:44;;;;;;;3.53;2.03;;;12.10;87.90;;;;;;5012187;28;20181;-86
2022/08/06 02:14:12;;;;;;;8.13;2.10;;;12.10;87.80;;;;;;5012091;28;20522;-86
2022/08/06 02:16:41;;;;;;;5.30;1.73;;;12.10;87.80;;;;;;5012207;28;20200;-86
2022/08/06 02:19:10;;;;;;;4.23;1.87;;;12.20;87.70;;;;;;5013483;28;20265;-86
2022/08/06 02:21:37;;;;;;;5.00;1.33;;;12.20;87.60;;;;;;5012395;28;20181;-86
2022/08/06 02:24:06;;;;;;;5.53;1.60;;;12.30;87.40;;;;;;5012010;28;20181;-86
2022/08/06 02:26:33;;;;;;;2.83;1.60;;;12.30;87.10;;;;;;5013202;28;20276;-86
2022/08/06 02:29:02;;;;;;;5.20;1.70;;;12.30;86.80;;;;;;5011908;28;20212;-86
2022/08/06 02:31:28;;;;;;;2.67;1.83;;;12.30;86.50;;;;;;5012148;28;20169;-86
2022/08/06 02:33:54;;;;;;;3.87;1.67;;;12.30;86.40;;;;;;5012050;28;20173;-86
2022/08/06 02:36:24;;;;;;;3.80;1.90;;;12.30;86.50;;;;;;5016847;28;20276;-86
2022/08/06 02:39:04;;;;;;;3.57;1.83;;;12.30;86.30;;;;;;5015617;28;20537;-86
2022/08/06 02:41:37;;;;;;;4.73;1.50;;;12.30;86.20;;;;;;5016914;28;20503;-86
2022/08/06 02:44:11;;;;;;;2.23;1.60;;;12.30;86.00;;;;;;5015816;28;20705;-86
2022/08/06 02:46:58;;;;;;;4.17;1.70;;;12.30;85.90;;;;;;5015487;28;20209;-86
2022/08/06 02:49:27;;;;;;;2.40;1.27;;;12.20;85.80;;;;;;5016695;28;20200;-86
2022/08/06 02:52:02;;;;;;;4.30;1.60;;;12.20;85.80;;;;;;5016699;28;20212;-86
2022/08/06 02:54:48;;;;;;;6.30;2.17;;;12.20;85.70;;;;;;5015363;28;20643;-86
2022/08/06 02:57:20;;;;;;;3.53;1.50;;;12.10;85.40;;;;;;5016491;28;20238;-86
2022/08/06 02:59:48;;;;;;;1.93;1.50;;;12.00;85.30;;;;;;5016957;28;20714;-86
2022/08/06 03:02:16;;;;;;;5.03;1.60;;;12.10;85.30;;;;;;5015275;28;20180;-86
2022/08/06 03:04:47;;;;;;;10.27;1.67;;;12.00;85.30;;;;;;5015307;28;20208;-86
2022/08/06 03:07:14;;;;;;;3.47;1.40;;;12.00;85.40;;;;;;5015231;28;20781;-86
2022/08/06 03:09:45;;;;;;;4.10;1.80;;;11.90;85.70;;;;;;5015051;28;20559;-86
2022/08/06 03:12:12;;;;;;;6.13;1.50;;;11.90;85.80;;;;;;5016837;28;20630;-86
2022/08/06 03:14:39;;;;;;;2.73;1.70;;;11.90;85.50;;;;;;5016313;28;20189;-86
2022/08/06 03:17:07;;;;;;;3.23;1.57;;;11.90;85.60;;;;;;5016159;28;20678;-86
2022/08/06 03:19:34;;;;;;;3.73;1.50;;;11.90;85.60;;;;;;5015003;28;20295;-86
2022/08/06 03:22:01;;;;;;;5.87;1.70;;;11.90;85.40;;;;;;5014962;28;20264;-87
2022/08/06 03:24:28;;;;;;;4.87;1.67;;;11.90;85.40;;;;;;5016162;28;20181;-86
2022/08/06 03:26:59;;;;;;;1.97;1.60;;;11.90;85.20;;;;;;5015957;28;20193;-86
2022/08/06 03:29:26;;;;;;;4.10;1.70;;;11.90;85.00;;;;;;5016031;28;20201;-86
2022/08/06 03:31:52;;;;;;;4.20;1.53;;;11.80;85.60;;;;;;5014592;28;20220;-86
2022/08/06 03:34:19;;;;;;;3.00;1.93;;;11.80;85.70;;;;;;5015917;28;20170;-86
2022/08/06 03:36:45;;;;;;;5.00;2.03;;;11.80;86.30;;;;;;5014736;28;20189;-86
2022/08/06 03:39:12;;;;;;;4.27;2.07;;;11.70;86.90;;;;;;5014504;28;20215;-86
2022/08/06 03:41:40;;;;;;;4.17;2.00;;;11.70;87.50;;;;;;5015528;28;20508;-86
2022/08/06 03:44:06;;;;;;;4.73;2.20;;;11.70;87.80;;;;;;5014538;28;20288;-86
2022/08/06 03:46:58;;;;;;;3.83;1.80;;;11.60;87.90;;;;;;5014294;28;20267;-85
2022/08/06 03:49:29;;;;;;;4.53;2.00;;;11.60;88.00;;;;;;5015826;28;20273;-86
2022/08/06 03:51:58;;;;;;;6.23;2.33;;;11.60;88.20;;;;;;5014414;28;20256;-86
2022/08/06 03:54:28;;;;;;;2.97;2.03;;;11.60;88.50;;;;;;5015604;28;20174;-86
2022/08/06 03:56:56;;;;;;;5.80;2.60;;;11.90;88.80;;;;;;5015875;28;20201;-86
2022/08/06 03:59:25;;;;;;;4.10;2.10;;;12.20;88.70;;;;;;5014186;28;20188;-86
2022/08/06 04:01:51;;;;;;;5.37;1.87;;;12.30;88.10;;;;;;5014083;28;20177;-86
2022/08/06 04:04:19;;;;;;;3.67;2.00;;;12.50;87.80;;;;;;5014094;28;20216;-87
2022/08/06 04:06:45;;;;;;;3.73;1.80;;;12.60;87.40;;;;;;5013991;28;20208;-86
2022/08/06 04:09:12;;;;;;;2.93;1.97;;;12.70;87.40;;;;;;5014101;28;20721;-86
2022/08/06 04:11:38;;;;;;;5.47;1.93;;;12.90;87.30;;;;;;5015187;28;20178;-86
2022/08/06 04:14:05;;;;;;;3.80;1.60;;;13.00;86.90;;;;;;5015110;28;20173;-85
2022/08/06 04:16:31;;;;;;;4.30;1.70;;;13.20;86.60;;;;;;5015416;28;20659;-86
2022/08/06 04:18:58;;;;;;;3.53;1.70;;;13.20;86.30;;;;;;5015073;28;20273;-86
2022/08/06 04:21:24;;;;;;;3.90;1.50;;;13.30;86.10;;;;;;5014164;28;20178;-86
2022/08/06 04:23:51;;;;;;;4.47;1.40;;;13.30;85.90;;;;;;5014008;28;20185;-86
2022/08/06 04:26:23;;;;;;;2.30;1.40;;;13.40;85.70;;;;;;5013972;28;20209;-86
2022/08/06 04:28:52;;;;;;;5.50;1.60;;;13.40;85.40;;;;;;5013865;28;20737;-86
2022/08/06 04:31:19;;;;;;;4.53;1.50;;;13.40;85.20;;;;;;5013731;28;20621;-86
2022/08/06 04:33:45;;;;;;;2.30;1.60;;;13.30;84.90;;;;;;5015153;28;20205;-86
2022/08/06 04:36:12;;;;;;;3.57;1.90;;;13.20;85.20;;;;;;5013440;28;20204;-86
2022/08/06 04:38:38;;;;;;;4.30;2.00;;;13.00;86.00;;;;;;5013547;28;20189;-86
2022/08/06 04:41:04;;;;;;;3.80;1.73;;;13.00;86.40;;;;;;5014616;28;20212;-86
2022/08/06 04:43:30;;;;;;;5.33;2.20;;;13.00;86.60;;;;;;5014576;28;20177;-86
2022/08/06 04:45:57;;;;;;;5.63;1.93;;;12.90;86.70;;;;;;5014733;28;20223;-86
2022/08/06 04:48:23;;;;;;;5.13;2.03;;;12.90;87.00;;;;;;5013420;28;20239;-86
2022/08/06 04:50:49;;;;;;;4.87;2.30;;;13.00;87.10;;;;;;5013326;28;20272;-86
2022/08/06 04:53:17;;;;;;;5.57;2.10;;;13.00;87.30;;;;;;5013472;28;20220;-86
2022/08/06 04:55:44;;;;;;;4.57;2.57;;;13.00;87.70;;;;;;5013801;28;20263;-85
2022/08/06 04:58:11;;;;;;;7.33;2.50;;;13.00;88.00;;;;;;5012621;28;20173;-86
2022/08/06 05:00:39;;;;;;;6.23;2.50;;;13.00;88.40;;;;;;5014628;28;20253;-86
2022/08/06 05:03:05;;;;;;;6.10;2.73;;;13.00;88.40;;;;;;5014297;28;20188;-86
2022/08/06 05:05:35;;;;;;;8.90;2.60;;;13.00;88.40;;;;;;5013215;28;20671;-86
2022/08/06 05:08:03;;;;;;;4.90;2.67;;;13.00;88.30;;;;;;5013029;28;20213;-86
2022/08/06 05:10:41;;;;;;;3.80;2.63;;;13.00;88.30;;;;;;5014083;28;20216;-86
2022/08/06 05:13:09;;;;;;;7.07;2.73;;;13.10;88.40;;;;;;5012861;28;20184;-86
2022/08/06 05:15:39;;;;;;;7.43;2.70;;;13.10;88.40;;;;;;5012630;28;20201;-86
2022/08/06 05:18:14;;;;;;;3.67;2.63;;;13.10;88.30;;;;;;5012976;28;20188;-86
2022/08/06 05:20:42;;;;;;;7.50;2.77;;;13.10;88.30;;;;;;5012908;28;20183;-86
2022/08/06 05:23:12;;;;;;;4.17;2.80;;;13.20;88.30;;;;;;5013883;28;20188;-86
2022/08/06 05:25:39;;;;;;;5.30;3.20;;;13.30;88.30;;;;;;5012645;28;20255;-86
2022/08/06 05:28:05;;;;;;;4.87;2.70;;;13.20;88.20;;;;;;5013916;28;20551;-86
2022/08/06 05:30:31;;;;;;;5.70;2.57;;;13.20;88.40;;;;;;5012441;28;20300;-86
2022/08/06 05:32:58;;;;;;;5.30;2.93;;;13.20;88.80;;;;;;5012503;28;20205;-86
2022/08/06 05:35:24;;;;;;;3.20;2.57;;;13.10;89.00;;;;;;5012500;28;20263;-86
2022/08/06 05:37:49;;;;;;;4.93;3.50;;;13.10;89.10;;;;;;5012906;28;20544;-86
2022/08/06 05:40:15;;;;;;;3.80;3.37;;;13.20;89.30;;;;;;5012461;28;20185;-86
2022/08/06 05:42:41;;;;;;;4.47;3.27;;;13.20;89.80;;;;;;5012497;28;20181;-86
2022/08/06 05:45:10;;;;;;;4.07;2.83;;;13.20;89.80;;;;;;5013534;28;20549;-86
2022/08/06 05:47:37;;;;;;;3.80;2.60;;;13.30;89.70;;;;;;5013298;28;20196;-86
2022/08/06 05:50:13;;;;;;;8.27;2.73;;;13.30;89.80;;;;;;5013604;28;20208;-86
2022/08/06 05:53:05;;;;;;;7.00;2.80;;;13.40;89.70;;;;;;5012590;28;20173;-86
2022/08/06 05:55:44;;;;;;;5.20;2.83;;;13.50;89.40;;;;;;5012392;28;20248;-86
2022/08/06 05:58:17;;;;;;;2.40;2.20;;;13.60;89.00;;;;;;5012421;28;20180;-85
2022/08/06 06:00:43;;;;;;;8.53;3.00;;;13.70;88.60;;;;;;5013491;28;20181;-86
2022/08/06 06:03:12;;;;;;;3.83;2.07;;;13.80;88.60;;;;;;5013511;28;20185;-86
2022/08/06 06:05:39;;;;;;;7.90;2.67;;;13.90;88.80;;;;;;5013516;28;20193;-86
2022/08/06 06:08:06;;;;;;;4.30;2.07;;;13.90;87.70;;;;;;5012133;28;20204;-86
2022/08/06 06:10:33;;;;;;;3.10;2.00;;;14.00;87.20;;;;;;5014691;28;20209;-86
2022/08/06 06:13:01;;;;;;;5.50;2.47;;;14.20;87.00;;;;;;5016128;28;20181;-86
2022/08/06 06:15:27;;;;;;;5.00;1.90;;;14.30;86.30;;;;;;5016169;28;20197;-86
2022/08/06 06:18:10;;;;;;;4.07;2.00;;;14.50;86.20;;;;;;5016098;28;20181;-86
2022/08/06 06:20:44;;;;;;;5.33;2.17;;;14.80;86.40;;;;;;5016061;28;20267;-86
2022/08/06 06:23:17;;;;;;;2.83;2.00;;;14.80;86.40;;;;;;5016225;28;20173;-86
2022/08/06 06:26:10;;;;;;;6.13;2.10;;;14.70;85.10;;;;;;5017308;28;20200;-86
2022/08/06 06:29:03;;;;;;;7.33;1.87;;;14.60;84.90;;;;;;5016084;28;20251;-86
2022/08/06 06:31:35;;;;;;;7.47;1.80;;;14.70;85.00;;;;;;5015844;28;20213;-85
2022/08/06 06:34:01;;;;;;;3.23;1.67;;;14.70;84.30;;;;;;5017118;28;20158;-86
2022/08/06 06:36:37;;;;;;;3.30;1.77;;;14.60;84.70;;;;;;5016995;28;20201;-86
2022/08/06 06:39:27;;;;;;;5.03;1.80;;;14.80;85.50;;;;;;5015885;28;20184;-86
2022/08/06 06:42:09;;;;;;;4.37;1.60;;;15.00;84.70;;;;;;5017120;28;20530;-86
2022/08/06 06:44:40;;;;;;;3.23;1.60;;;15.20;83.30;;;;;;5017154;28;20173;-86
2022/08/06 06:47:18;;;;;;;4.00;1.40;;;15.30;83.10;;;;;;5016956;28;20296;-86
2022/08/06 06:50:11;;;;;;;4.17;1.30;;;15.30;82.00;;;;;;5017007;28;20197;-86
2022/08/06 06:52:41;;;;;;;3.93;1.30;;;15.20;82.60;;;;;;5031974;28;20207;-85
2022/08/06 06:55:12;;;;;;;9.47;1.73;;;15.00;83.70;;;;;;5015378;28;20666;-84
2022/08/06 06:57:51;;;;;;;4.37;1.60;;;14.70;84.60;;;;;;5015569;28;20178;-86
2022/08/06 07:00:17;;;;;;;1.37;1.20;;;14.70;85.20;;;;;;5017081;28;20730;-85
2022/08/06 07:02:46;;;;;;;3.53;1.50;;;14.60;85.50;;;;;;5015502;28;20268;-85
2022/08/06 07:05:13;;;;;;;2.80;1.50;;;14.60;85.60;;;;;;5015491;28;20579;-85
2022/08/06 07:07:41;;;;;;;4.03;1.43;;;14.70;86.00;;;;;;5015611;28;20196;-85
2022/08/06 07:10:11;;;;;;;4.10;1.10;;;14.70;86.20;;;;;;5016717;28;20699;-86
2022/08/06 07:12:39;;;;;;;2.10;1.10;;;14.80;86.70;;;;;;5015115;28;20272;-85
2022/08/06 07:15:07;;;;;;;1.57;0.90;;;14.90;86.50;;;;;;5015308;28;20272;-86
2022/08/06 07:17:35;;;;;;;3.43;1.20;;;15.00;86.50;;;;;;5015271;28;20181;-86
2022/08/06 07:20:07;;;;;;;3.03;1.20;;;15.10;86.50;;;;;;5015857;28;20232;-85
2022/08/06 07:22:33;;;;;;;3.90;1.30;;;15.10;86.40;;;;;;5015192;28;20182;-86
2022/08/06 07:25:02;;;;;;;2.90;1.05;;;15.30;86.40;;;;;;5016364;28;20189;-86
2022/08/06 07:27:35;;;;;;;4.20;1.30;;;15.40;85.50;;;;;;5014879;28;20230;-86
2022/08/06 07:30:02;;;;;;;8.70;1.40;;;15.40;83.20;;;;;;5016207;28;20568;-86
2022/08/06 07:32:29;;;;;;;2.65;1.00;;;15.60;83.60;;;;;;5014903;28;20292;-86
2022/08/06 07:34:56;;;;;;;2.47;1.15;;;15.70;83.10;;;;;;5015053;28;20702;-86
2022/08/06 07:37:25;;;;;;;2.30;1.02;;;15.70;81.90;;;;;;5015035;28;20209;-85
2022/08/06 07:39:52;;;;;;;7.93;1.63;;;16.00;82.10;;;;;;5015051;28;20177;-85
2022/08/06 07:42:24;;;;;;;2.90;1.90;;;16.20;82.20;;;;;;5015629;28;20181;-85
2022/08/06 07:44:53;;;;;;;2.70;1.10;;;16.20;81.10;;;;;;5015562;28;20173;-86
2022/08/06 07:47:21;;;;;;;3.83;1.55;;;16.20;80.40;;;;;;5014439;28;20227;-85
2022/08/06 07:49:51;;;;;;;2.55;1.10;;;16.20;79.30;;;;;;5015477;28;20292;-86
2022/08/06 07:52:18;;;;;;;1.92;1.10;;;16.20;80.10;;;;;;5015319;28;20257;-85
2022/08/06 07:54:45;;;;;;;1.52;1.05;;;16.40;78.40;;;;;;5014323;28;20598;-85
2022/08/06 07:57:12;;;;;;;3.75;1.23;;;16.50;78.00;;;;;;5015450;28;20264;-85
2022/08/06 07:59:39;;;;;;;6.47;1.20;;;16.50;76.70;;;;;;5014124;28;20276;-85
2022/08/06 08:02:05;;;;;;;4.68;1.23;;;16.20;76.70;;;;;;5014131;28;20188;-86
2022/08/06 08:07:17;;;;;;;6.20;1.02;;;16.50;79.00;;;;;;5016126;28;20259;-85
2022/08/06 08:09:43;;;;;;;3.17;0.90;;;16.80;78.80;;;;;;5014098;28;20201;-85
2022/08/06 08:12:15;;;;;;;3.42;0.95;;;16.90;77.80;;;;;;5015607;28;20173;-85
2022/08/06 08:14:44;;;;;;;3.53;1.10;;;17.00;75.50;;;;;;5014216;28;20181;-86
2022/08/06 08:17:09;;;;;;;5.65;1.27;;;17.00;75.60;;;;;;5013902;28;20202;-86
2022/08/06 08:19:35;;;;;;;2.90;0.90;;;17.20;75.70;;;;;;5015260;28;20181;-85
2022/08/06 08:22:16;;;;;;;6.25;0.82;;;17.30;76.00;;;;;;5015054;28;20662;-86
2022/08/06 08:24:44;;;;;;;2.92;1.25;;;17.50;74.70;;;;;;5014202;28;20173;-86
2022/08/06 08:27:10;;;;;;;2.25;1.00;;;17.70;73.50;;;;;;5013795;28;20232;-87
2022/08/06 08:29:37;;;;;;;3.38;1.10;;;17.90;74.00;;;;;;5013669;28;20229;-86
2022/08/06 08:32:04;;;;;;;3.72;0.80;;;17.90;71.70;;;;;;5012725;28;20205;-86
2022/08/06 08:34:29;;;;;;;5.32;1.33;;;17.80;71.50;;;;;;5013419;28;20220;-87
2022/08/06 08:36:55;;;;;;;5.95;1.30;;;17.60;70.30;;;;;;5013324;28;20197;-87
2022/08/06 08:39:20;;;;;;;2.78;0.90;;;17.60;71.60;;;;;;5013542;28;20181;-86
2022/08/06 08:41:51;;;;;;;1.73;1.00;;;17.70;71.80;;;;;;5014047;28;20243;-86
2022/08/06 08:44:25;;;;;;;2.53;0.93;;;18.10;72.10;;;;;;5014032;28;20671;-85
2022/08/06 08:46:51;;;;;;;3.70;1.17;;;18.10;70.70;;;;;;5013898;28;20574;-85
2022/08/06 08:49:40;;;;;;;4.85;1.15;;;18.30;72.40;;;;;;5015089;28;20223;-85
2022/08/06 08:52:09;;;;;;;6.35;1.42;;;18.40;69.30;;;;;;5013644;28;20177;-87
2022/08/06 08:54:37;;;;;;;5.95;1.02;;;18.60;69.60;;;;;;5013356;28;20177;-86
2022/08/06 08:57:03;;;;;;;1.13;1.00;;;18.50;68.30;;;;;;5013298;28;20201;-87
2022/08/06 08:59:30;;;;;;;2.15;0.80;;;18.30;68.10;;;;;;5013248;28;20204;-86
2022/08/06 09:01:56;;;;;;;4.25;1.00;;;18.10;65.20;;;;;;5014231;28;20173;-87
2022/08/06 09:04:22;;;;;;;5.07;1.40;;;18.30;67.30;;;;;;5012874;28;20177;-88
2022/08/06 09:06:48;;;;;;;3.22;1.35;;;18.20;64.10;;;;;;5014032;28;20201;-88
2022/08/06 09:09:14;;;;;;;5.63;1.45;;;18.10;66.50;;;;;;5013849;28;20259;-88
2022/08/06 09:11:40;;;;;;;4.57;1.45;;;17.80;69.00;;;;;;5012862;28;20176;-87
2022/08/06 09:14:08;;;;;;;2.78;1.20;;;17.70;69.50;;;;;;5012795;28;20212;-87
2022/08/06 09:16:36;;;;;;;6.22;1.30;;;18.00;70.10;;;;;;5012690;28;20228;-87
2022/08/06 09:19:03;;;;;;;4.10;1.17;;;18.20;68.10;;;;;;5013873;28;20200;-87
2022/08/06 09:21:30;;;;;;;7.95;2.15;;;18.50;67.20;;;;;;5014123;28;20188;-88
2022/08/06 09:23:56;;;;;;;8.63;1.63;;;18.70;67.30;;;;;;5012687;28;20178;-89
2022/08/06 09:26:21;;;;;;;6.82;1.48;;;19.00;64.30;;;;;;5012639;28;20557;-86
2022/08/06 09:28:47;;;;;;;4.22;1.58;;;19.20;64.50;;;;;;5013844;28;20217;-86
2022/08/06 09:31:18;;;;;;;4.65;1.23;;;19.30;63.40;;;;;;5013791;28;20177;-89
2022/08/06 09:34:05;;;;;;;5.55;1.63;;;19.40;64.20;;;;;;5012523;28;20519;-87
2022/08/06 09:36:45;;;;;;;4.10;1.33;;;19.80;65.30;;;;;;5013518;28;20671;-88
2022/08/06 09:39:11;;;;;;;4.75;1.30;;;19.80;63.20;;;;;;5012593;28;20180;-88
2022/08/06 09:41:48;;;;;;;4.25;1.80;;;19.80;62.00;;;;;;5012761;28;20181;-87
2022/08/06 09:44:13;;;;;;;3.35;1.60;;;20.00;61.10;;;;;;5012403;28;20208;-86
2022/08/06 09:46:42;;;;;;;11.43;2.80;;;20.10;60.50;;;;;;5012328;28;20761;-86
2022/08/06 09:49:10;;;;;;;6.47;3.00;;;19.30;61.30;;;;;;5012375;28;20205;-87
2022/08/06 09:51:37;;;;;;;6.75;3.05;;;19.10;59.70;;;;;;5013931;28;20196;-87
2022/08/06 09:54:05;;;;;;;5.55;2.95;;;18.70;60.90;;;;;;5013666;28;20659;-86
2022/08/06 09:56:31;;;;;;;11.43;4.40;;;19.00;61.70;;;;;;5012358;28;20578;-86
2022/08/06 09:59:05;;;;;;;6.50;3.40;;;19.50;59.90;;;;;;5012477;28;20239;-86
2022/08/06 10:01:43;;;;;;;4.47;3.50;;;19.60;58.10;;;;;;5012541;28;20184;-86
2022/08/06 10:04:25;;;;;;;4.95;3.80;;;19.80;60.30;;;;;;5013613;28;20157;-86
2022/08/06 10:06:56;;;;;;;4.50;3.50;;;20.30;58.30;;;;;;5012556;28;20296;-87
2022/08/06 10:09:23;;;;;;;4.07;3.38;;;20.20;58.30;;;;;;5012745;28;20197;-86
2022/08/06 10:11:49;;;;;;;4.20;3.20;;;20.50;55.60;;;;;;5013960;28;20197;-86
2022/08/06 10:14:29;;;;;;;7.72;3.30;;;20.50;53.60;;;;;;5012238;28;20223;-86
2022/08/06 10:17:09;;;;;;;4.75;3.30;;;20.30;54.00;;;;;;5013677;28;20268;-86
2022/08/06 10:19:36;;;;;;;5.60;2.97;;;19.80;58.00;;;;;;5012315;28;20700;-86
2022/08/06 10:22:10;;;;;;;3.80;3.15;;;20.30;56.60;;;;;;5012255;28;20189;-87
2022/08/06 10:24:44;;;;;;;7.05;3.50;;;20.10;55.20;;;;;;5013488;28;20176;-86
2022/08/06 10:27:21;;;;;;;5.65;3.88;;;20.30;56.10;;;;;;5012306;28;20214;-85
2022/08/06 10:29:57;;;;;;;7.20;4.20;;;20.60;55.80;;;;;;5013983;28;20655;-86
2022/08/06 10:32:31;;;;;;;5.68;3.67;;;20.60;55.80;;;;;;5012227;28;20638;-85
2022/08/06 10:35:00;;;;;;;7.38;3.90;;;20.50;56.70;;;;;;5013325;28;20639;-85
2022/08/06 10:37:26;;;;;;;9.80;3.63;;;20.70;55.80;;;;;;5012066;28;20198;-86
2022/08/06 10:39:58;;;;;;;7.00;3.60;;;21.00;53.80;;;;;;5012325;28;20181;-87
2022/08/06 10:42:25;;;;;;;7.13;2.90;;;21.20;52.80;;;;;;5013520;28;20214;-86
2022/08/06 10:44:51;;;;;;;6.05;3.17;;;21.40;53.30;;;;;;5012096;28;20734;-86
2022/08/06 10:47:17;;;;;;;4.80;3.78;;;20.90;52.80;;;;;;5013208;28;20684;-86
2022/08/06 10:49:45;;;;;;;7.75;3.90;;;21.00;54.70;;;;;;5012393;28;20221;-86
2022/08/06 10:52:12;;;;;;;7.55;3.55;;;21.50;55.80;;;;;;5013194;28;20169;-85
2022/08/06 10:54:39;;;;;;;6.00;3.60;;;21.30;52.40;;;;;;5012017;28;20602;-86
2022/08/06 10:57:06;;;;;;;6.45;4.07;;;21.20;51.90;;;;;;5016224;28;20559;-86
2022/08/06 10:59:32;;;;;;;6.82;3.45;;;21.50;53.40;;;;;;5016512;28;20576;-86
2022/08/06 11:02:18;;;;;;;5.93;3.80;;;21.70;50.70;;;;;;5016694;28;20181;-86
2022/08/06 11:04:52;;;;;;;8.45;3.78;;;21.70;51.80;;;;;;5015535;28;20196;-86
2022/08/06 11:07:32;;;;;;;6.47;3.80;;;21.30;52.30;;;;;;5015329;28;20209;-86
2022/08/06 11:10:23;;;;;;;3.63;3.08;;;21.70;52.00;;;;;;5015140;28;20699;-87
2022/08/06 11:13:10;;;;;;;6.30;3.17;;;21.90;48.90;;;;;;5015278;28;20177;-86
2022/08/06 11:15:37;;;;;;;4.25;3.58;;;21.60;48.50;;;;;;5016265;28;20193;-86
2022/08/06 11:18:05;;;;;;;4.50;3.53;;;21.70;50.20;;;;;;5015124;28;20249;-85
2022/08/06 11:20:36;;;;;;;3.85;3.42;;;20.90;50.50;;;;;;5015275;28;20181;-86
2022/08/06 11:23:11;;;;;;;4.72;3.53;;;21.50;49.30;;;;;;5014900;28;20173;-85
2022/08/06 11:25:40;;;;;;;8.13;3.85;;;21.90;50.50;;;;;;5014856;28;20201;-85
2022/08/06 11:28:11;;;;;;;4.80;2.45;;;21.80;49.80;;;;;;5014977;28;20177;-86
2022/08/06 11:30:48;;;;;;;3.05;2.78;;;21.80;44.70;;;;;;5014972;28;20194;-85
2022/08/06 11:33:18;;;;;;;4.72;3.72;;;22.20;45.20;;;;;;5014798;28;20174;-86
2022/08/06 11:35:46;;;;;;;5.20;4.45;;;22.10;47.40;;;;;;5014647;28;20198;-85
2022/08/06 11:38:14;;;;;;;7.05;3.38;;;22.00;48.70;;;;;;5016068;28;20170;-85
2022/08/06 11:41:00;;;;;;;6.45;3.10;;;22.10;46.90;;;;;;5014852;28;20178;-85
2022/08/06 11:43:47;;;;;;;4.60;3.60;;;22.00;44.60;;;;;;5015475;28;20273;-85
2022/08/06 11:46:22;;;;;;;4.45;3.17;;;22.10;45.90;;;;;;5016016;28;20236;-85
2022/08/06 11:48:59;;;;;;;3.80;3.50;;;22.20;42.50;;;;;;5014613;28;20207;-86
2022/08/06 11:51:43;;;;;;;3.95;3.28;;;21.60;44.10;;;;;;5015960;28;20635;-86
2022/08/06 11:54:15;;;;;;;5.35;3.75;;;21.70;45.10;;;;;;5014455;28;20172;-85
2022/08/06 11:57:02;;;;;;;3.78;2.55;;;21.60;46.30;;;;;;5014426;28;20277;-85
2022/08/06 11:59:44;;;;;;;14.73;3.55;;;22.20;43.30;;;;;;5014442;28;20217;-85
2022/08/06 12:02:12;;;;;;;3.97;3.30;;;22.20;42.50;;;;;;5015432;28;20213;-84
2022/08/06 12:04:40;;;;;;;6.20;3.97;;;22.20;44.00;;;;;;5014478;28;20553;-85
2022/08/06 12:07:23;;;;;;;5.47;3.50;;;22.30;42.60;;;;;;5012955;28;20201;-85
2022/08/06 12:10:06;;;;;;;6.45;3.80;;;22.30;43.40;;;;;;5015827;28;20622;-85
2022/08/06 12:12:38;;;;;;;6.43;3.78;;;21.30;43.70;;;;;;5014101;28;20685;-85
2022/08/06 12:15:12;;;;;;;4.13;3.17;;;21.50;46.70;;;;;;5014218;28;20204;-85
2022/08/06 12:17:54;;;;;;;4.40;4.00;;;22.00;45.00;;;;;;5015552;28;20165;-85
2022/08/06 12:20:35;;;;;;;7.95;3.65;;;22.70;44.80;;;;;;5019127;28;20685;-87
2022/08/06 12:23:07;;;;;;;5.78;3.95;;;22.90;45.20;;;;;;5016871;28;20698;-86
2022/08/06 12:25:43;;;;;;;8.32;4.40;;;22.60;44.60;;;;;;5018029;28;20189;-87
2022/08/06 12:28:11;;;;;;;6.35;4.20;;;23.00;45.40;;;;;;5015941;28;20161;-87
2022/08/06 12:30:51;;;;;;;4.50;3.90;;;23.20;44.30;;;;;;5016207;28;20232;-86
2022/08/06 12:33:18;;;;;;;4.30;3.60;;;23.20;44.30;;;;;;5015984;28;20651;-87
2022/08/06 12:35:52;;;;;;;6.70;4.10;;;23.30;44.40;;;;;;5015777;28;20200;-86
2022/08/06 12:38:21;;;;;;;5.93;4.47;;;23.10;44.10;;;;;;5016913;28;20208;-86
2022/08/06 12:40:58;;;;;;;5.88;4.05;;;23.30;45.20;;;;;;5017801;28;20528;-87
2022/08/06 12:43:25;;;;;;;4.25;3.85;;;23.20;44.80;;;;;;5017524;28;20169;-87
2022/08/06 12:46:00;;;;;;;5.50;4.22;;;23.70;42.70;;;;;;5016465;28;20656;-87
2022/08/06 12:48:26;;;;;;;8.05;3.90;;;23.30;43.30;;;;;;5017883;28;20169;-86
2022/08/06 12:51:13;;;;;;;6.88;4.63;;;23.00;43.80;;;;;;5019298;28;20707;-86
2022/08/06 12:53:52;;;;;;;8.80;4.63;;;22.20;46.90;;;;;;5017875;28;20158;-86
2022/08/06 12:56:19;;;;;;;7.93;4.45;;;22.40;46.60;;;;;;5018310;28;20327;-87
2022/08/06 12:58:45;;;;;;;4.40;3.88;;;22.90;45.60;;;;;;5018131;28;20176;-86
2022/08/06 13:01:14;;;;;;;6.20;4.88;;;23.20;42.40;;;;;;5015268;28;20648;-86
2022/08/06 13:03:44;;;;;;;5.30;4.53;;;23.00;45.40;;;;;;5015115;28;20648;-87